sensor_id;sensor_type;location;lat;lon;timestamp;P1;durP1;ratioP1;P2;durP2;ratioP2
16031;SDS011;8120;48.308;8.914;2023-07-09T00:01:14;6.43;;;3.57;;
16031;SDS011;8120;48.308;8.914;2023-07-09T00:03:44;6.97;;;3.67;;
16031;SDS011;8120;48.308;8.914;2023-07-09T00:06:16;6.47;;;3.70;;
16031;SDS011;8120;48.308;8.914;2023-07-09T00:08:47;8.87;;;4.40;;
16031;SDS011;8120;48.308;8.914;2023-07-09T00:11:16;5.93;;;3.70;;
16031;SDS011;8120;48.308;8.914;2023-07-09T00:13:44;5.80;;;3.77;;
16031;SDS011;8120;48.308;8.914;2023-07-09T00:16:13;5.90;;;3.60;;
16031;SDS011;8120;48.308;8.914;2023-07-09T00:18:44;7.57;;;3.97;;
16031;SDS011;8120;48.308;8.914;2023-07-09T00:21:17;6.63;;;3.20;;
16031;SDS011;8120;48.308;8.914;2023-07-09T00:23:46;4.80;;;3.10;;
16031;SDS011;8120;48.308;8.914;2023-07-09T00:26:15;5.33;;;3.33;;
16031;SDS011;8120;48.308;8.914;2023-07-09T00:28:49;4.77;;;3.30;;
16031;SDS011;8120;48.308;8.914;2023-07-09T00:31:17;6.10;;;3.80;;
16031;SDS011;8120;48.308;8.914;2023-07-09T00:33:45;4.83;;;3.40;;
16031;SDS011;8120;48.308;8.914;2023-07-09T00:36:14;5.40;;;3.60;;
16031;SDS011;8120;48.308;8.914;2023-07-09T00:38:48;5.27;;;3.47;;
16031;SDS011;8120;48.308;8.914;2023-07-09T00:41:18;7.03;;;3.97;;
16031;SDS011;8120;48.308;8.914;2023-07-09T00:43:49;5.53;;;3.67;;
16031;SDS011;8120;48.308;8.914;2023-07-09T00:49:28;7.00;;;3.53;;
16031;SDS011;8120;48.308;8.914;2023-07-09T00:51:59;6.10;;;3.57;;
16031;SDS011;8120;48.308;8.914;2023-07-09T00:54:31;6.03;;;4.00;;
16031;SDS011;8120;48.308;8.914;2023-07-09T00:57:04;6.07;;;3.97;;
16031;SDS011;8120;48.308;8.914;2023-07-09T00:59:36;7.60;;;4.20;;
16031;SDS011;8120;48.308;8.914;2023-07-09T01:02:05;7.00;;;3.97;;
16031;SDS011;8120;48.308;8.914;2023-07-09T01:04:35;5.53;;;3.63;;
16031;SDS011;8120;48.308;8.914;2023-07-09T01:07:06;5.87;;;3.83;;
16031;SDS011;8120;48.308;8.914;2023-07-09T01:09:35;6.80;;;3.80;;
16031;SDS011;8120;48.308;8.914;2023-07-09T01:12:07;6.87;;;4.57;;
16031;SDS011;8120;48.308;8.914;2023-07-09T01:14:37;7.20;;;4.90;;
16031;SDS011;8120;48.308;8.914;2023-07-09T01:17:06;8.07;;;4.40;;
16031;SDS011;8120;48.308;8.914;2023-07-09T01:19:38;6.80;;;4.20;;
16031;SDS011;8120;48.308;8.914;2023-07-09T01:22:12;6.53;;;4.23;;
16031;SDS011;8120;48.308;8.914;2023-07-09T01:24:49;7.63;;;5.00;;
16031;SDS011;8120;48.308;8.914;2023-07-09T01:27:20;9.40;;;5.03;;
16031;SDS011;8120;48.308;8.914;2023-07-09T01:29:50;7.27;;;4.63;;
16031;SDS011;8120;48.308;8.914;2023-07-09T01:32:18;6.73;;;4.73;;
16031;SDS011;8120;48.308;8.914;2023-07-09T01:34:48;9.40;;;5.10;;
16031;SDS011;8120;48.308;8.914;2023-07-09T01:37:22;7.67;;;4.90;;
16031;SDS011;8120;48.308;8.914;2023-07-09T01:39:51;7.53;;;4.60;;
16031;SDS011;8120;48.308;8.914;2023-07-09T01:42:21;7.40;;;4.30;;
16031;SDS011;8120;48.308;8.914;2023-07-09T01:44:51;6.10;;;3.83;;
16031;SDS011;8120;48.308;8.914;2023-07-09T01:47:20;8.37;;;4.13;;
16031;SDS011;8120;48.308;8.914;2023-07-09T01:49:50;6.47;;;4.47;;
16031;SDS011;8120;48.308;8.914;2023-07-09T01:52:25;7.67;;;4.20;;
16031;SDS011;8120;48.308;8.914;2023-07-09T01:54:55;7.83;;;4.03;;
16031;SDS011;8120;48.308;8.914;2023-07-09T01:57:24;5.50;;;3.47;;
16031;SDS011;8120;48.308;8.914;2023-07-09T02:00:00;5.80;;;3.67;;
16031;SDS011;8120;48.308;8.914;2023-07-09T02:02:30;6.47;;;3.97;;
16031;SDS011;8120;48.308;8.914;2023-07-09T02:04:59;9.10;;;3.87;;
16031;SDS011;8120;48.308;8.914;2023-07-09T02:07:28;6.93;;;4.07;;
16031;SDS011;8120;48.308;8.914;2023-07-09T02:09:56;6.17;;;3.73;;
16031;SDS011;8120;48.308;8.914;2023-07-09T02:12:25;5.97;;;4.27;;
16031;SDS011;8120;48.308;8.914;2023-07-09T02:14:53;6.33;;;4.33;;
16031;SDS011;8120;48.308;8.914;2023-07-09T02:17:21;5.77;;;3.93;;
16031;SDS011;8120;48.308;8.914;2023-07-09T02:19:49;6.93;;;4.10;;
16031;SDS011;8120;48.308;8.914;2023-07-09T02:22:17;5.50;;;3.87;;
16031;SDS011;8120;48.308;8.914;2023-07-09T02:24:46;6.07;;;4.00;;
16031;SDS011;8120;48.308;8.914;2023-07-09T02:27:15;5.87;;;3.93;;
16031;SDS011;8120;48.308;8.914;2023-07-09T02:29:44;6.23;;;3.80;;
16031;SDS011;8120;48.308;8.914;2023-07-09T02:32:13;5.87;;;3.97;;
16031;SDS011;8120;48.308;8.914;2023-07-09T02:34:45;8.20;;;4.40;;
16031;SDS011;8120;48.308;8.914;2023-07-09T02:37:15;9.33;;;4.03;;
16031;SDS011;8120;48.308;8.914;2023-07-09T02:39:44;5.57;;;3.50;;
16031;SDS011;8120;48.308;8.914;2023-07-09T02:42:14;6.00;;;4.23;;
16031;SDS011;8120;48.308;8.914;2023-07-09T02:44:44;6.67;;;4.20;;
16031;SDS011;8120;48.308;8.914;2023-07-09T02:47:13;6.57;;;3.90;;
16031;SDS011;8120;48.308;8.914;2023-07-09T02:49:41;6.67;;;3.87;;
16031;SDS011;8120;48.308;8.914;2023-07-09T02:52:09;5.63;;;4.27;;
16031;SDS011;8120;48.308;8.914;2023-07-09T02:54:37;6.80;;;4.40;;
16031;SDS011;8120;48.308;8.914;2023-07-09T02:57:06;8.23;;;4.63;;
16031;SDS011;8120;48.308;8.914;2023-07-09T02:59:34;6.70;;;3.77;;
16031;SDS011;8120;48.308;8.914;2023-07-09T03:02:02;6.83;;;4.80;;
16031;SDS011;8120;48.308;8.914;2023-07-09T03:04:31;7.57;;;4.63;;
16031;SDS011;8120;48.308;8.914;2023-07-09T03:06:59;8.57;;;5.03;;
16031;SDS011;8120;48.308;8.914;2023-07-09T03:09:27;6.67;;;4.43;;
16031;SDS011;8120;48.308;8.914;2023-07-09T03:11:55;7.97;;;4.57;;
16031;SDS011;8120;48.308;8.914;2023-07-09T03:14:25;7.97;;;4.57;;
16031;SDS011;8120;48.308;8.914;2023-07-09T03:16:52;8.27;;;4.70;;
16031;SDS011;8120;48.308;8.914;2023-07-09T03:19:22;6.80;;;4.60;;
16031;SDS011;8120;48.308;8.914;2023-07-09T03:21:50;7.27;;;5.07;;
16031;SDS011;8120;48.308;8.914;2023-07-09T03:24:18;6.77;;;4.53;;
16031;SDS011;8120;48.308;8.914;2023-07-09T03:26:46;8.07;;;5.63;;
16031;SDS011;8120;48.308;8.914;2023-07-09T03:29:14;6.57;;;4.73;;
16031;SDS011;8120;48.308;8.914;2023-07-09T03:31:43;7.27;;;4.97;;
16031;SDS011;8120;48.308;8.914;2023-07-09T03:34:11;8.37;;;4.73;;
16031;SDS011;8120;48.308;8.914;2023-07-09T03:36:40;8.93;;;4.63;;
16031;SDS011;8120;48.308;8.914;2023-07-09T03:39:08;7.07;;;4.43;;
16031;SDS011;8120;48.308;8.914;2023-07-09T03:41:36;6.70;;;4.80;;
16031;SDS011;8120;48.308;8.914;2023-07-09T03:44:04;6.63;;;4.70;;
16031;SDS011;8120;48.308;8.914;2023-07-09T03:46:32;8.47;;;5.23;;
16031;SDS011;8120;48.308;8.914;2023-07-09T03:49:02;7.10;;;4.93;;
16031;SDS011;8120;48.308;8.914;2023-07-09T03:51:30;7.27;;;4.67;;
16031;SDS011;8120;48.308;8.914;2023-07-09T03:53:57;8.63;;;5.37;;
16031;SDS011;8120;48.308;8.914;2023-07-09T03:56:25;7.37;;;4.47;;
16031;SDS011;8120;48.308;8.914;2023-07-09T03:58:53;8.50;;;4.80;;
16031;SDS011;8120;48.308;8.914;2023-07-09T04:01:21;8.23;;;4.70;;
16031;SDS011;8120;48.308;8.914;2023-07-09T04:03:49;8.60;;;5.10;;
16031;SDS011;8120;48.308;8.914;2023-07-09T04:06:18;7.23;;;4.50;;
16031;SDS011;8120;48.308;8.914;2023-07-09T04:08:46;5.33;;;3.90;;
16031;SDS011;8120;48.308;8.914;2023-07-09T04:11:14;8.53;;;4.80;;
16031;SDS011;8120;48.308;8.914;2023-07-09T04:13:42;6.90;;;4.10;;
16031;SDS011;8120;48.308;8.914;2023-07-09T04:16:10;7.60;;;4.27;;
16031;SDS011;8120;48.308;8.914;2023-07-09T04:18:38;6.47;;;4.00;;
16031;SDS011;8120;48.308;8.914;2023-07-09T04:21:06;5.90;;;3.73;;
16031;SDS011;8120;48.308;8.914;2023-07-09T04:23:35;6.17;;;3.90;;
16031;SDS011;8120;48.308;8.914;2023-07-09T04:26:03;6.10;;;3.93;;
16031;SDS011;8120;48.308;8.914;2023-07-09T04:28:35;7.13;;;4.50;;
16031;SDS011;8120;48.308;8.914;2023-07-09T04:31:03;5.20;;;3.43;;
16031;SDS011;8120;48.308;8.914;2023-07-09T04:33:31;5.87;;;4.33;;
16031;SDS011;8120;48.308;8.914;2023-07-09T04:36:02;8.50;;;4.13;;
16031;SDS011;8120;48.308;8.914;2023-07-09T04:38:32;7.90;;;4.30;;
16031;SDS011;8120;48.308;8.914;2023-07-09T04:41:01;7.60;;;4.27;;
16031;SDS011;8120;48.308;8.914;2023-07-09T04:43:29;8.00;;;4.00;;
16031;SDS011;8120;48.308;8.914;2023-07-09T04:45:58;6.90;;;4.10;;
16031;SDS011;8120;48.308;8.914;2023-07-09T04:48:26;7.33;;;4.50;;
16031;SDS011;8120;48.308;8.914;2023-07-09T04:50:54;7.80;;;4.50;;
16031;SDS011;8120;48.308;8.914;2023-07-09T04:53:21;5.93;;;3.83;;
16031;SDS011;8120;48.308;8.914;2023-07-09T04:55:50;6.63;;;3.93;;
16031;SDS011;8120;48.308;8.914;2023-07-09T04:58:19;7.17;;;4.20;;
16031;SDS011;8120;48.308;8.914;2023-07-09T05:00:47;8.33;;;4.27;;
16031;SDS011;8120;48.308;8.914;2023-07-09T05:03:17;6.03;;;3.72;;
16031;SDS011;8120;48.308;8.914;2023-07-09T05:05:46;5.20;;;3.83;;
16031;SDS011;8120;48.308;8.914;2023-07-09T05:08:14;7.30;;;4.20;;
16031;SDS011;8120;48.308;8.914;2023-07-09T05:10:44;6.40;;;4.13;;
16031;SDS011;8120;48.308;8.914;2023-07-09T05:13:14;8.00;;;4.40;;
16031;SDS011;8120;48.308;8.914;2023-07-09T05:15:44;6.35;;;4.00;;
16031;SDS011;8120;48.308;8.914;2023-07-09T05:18:13;5.82;;;3.92;;
16031;SDS011;8120;48.308;8.914;2023-07-09T05:20:42;7.88;;;4.28;;
16031;SDS011;8120;48.308;8.914;2023-07-09T05:23:10;6.60;;;4.00;;
16031;SDS011;8120;48.308;8.914;2023-07-09T05:25:38;7.00;;;4.18;;
16031;SDS011;8120;48.308;8.914;2023-07-09T05:28:06;12.65;;;4.63;;
16031;SDS011;8120;48.308;8.914;2023-07-09T05:30:34;6.30;;;4.35;;
16031;SDS011;8120;48.308;8.914;2023-07-09T05:33:04;7.38;;;4.10;;
16031;SDS011;8120;48.308;8.914;2023-07-09T05:35:32;5.47;;;3.72;;
16031;SDS011;8120;48.308;8.914;2023-07-09T05:38:00;4.95;;;3.63;;
16031;SDS011;8120;48.308;8.914;2023-07-09T05:40:27;5.93;;;4.03;;
16031;SDS011;8120;48.308;8.914;2023-07-09T05:42:56;6.72;;;4.38;;
16031;SDS011;8120;48.308;8.914;2023-07-09T05:45:24;5.10;;;3.70;;
16031;SDS011;8120;48.308;8.914;2023-07-09T05:47:52;5.53;;;3.90;;
16031;SDS011;8120;48.308;8.914;2023-07-09T05:50:21;6.75;;;4.30;;
16031;SDS011;8120;48.308;8.914;2023-07-09T05:52:49;5.72;;;4.10;;
16031;SDS011;8120;48.308;8.914;2023-07-09T05:55:17;5.82;;;4.18;;
16031;SDS011;8120;48.308;8.914;2023-07-09T05:57:45;6.97;;;4.00;;
16031;SDS011;8120;48.308;8.914;2023-07-09T06:00:13;8.48;;;4.63;;
16031;SDS011;8120;48.308;8.914;2023-07-09T06:02:42;11.48;;;4.22;;
16031;SDS011;8120;48.308;8.914;2023-07-09T06:05:10;5.38;;;4.00;;
16031;SDS011;8120;48.308;8.914;2023-07-09T06:07:40;7.10;;;4.60;;
16031;SDS011;8120;48.308;8.914;2023-07-09T06:10:08;6.95;;;3.97;;
16031;SDS011;8120;48.308;8.914;2023-07-09T06:12:36;5.50;;;4.03;;
16031;SDS011;8120;48.308;8.914;2023-07-09T06:15:05;6.68;;;4.20;;
16031;SDS011;8120;48.308;8.914;2023-07-09T06:17:33;6.63;;;4.03;;
16031;SDS011;8120;48.308;8.914;2023-07-09T06:20:01;5.53;;;3.72;;
16031;SDS011;8120;48.308;8.914;2023-07-09T06:22:30;8.35;;;4.20;;
16031;SDS011;8120;48.308;8.914;2023-07-09T06:25:00;6.45;;;3.83;;
16031;SDS011;8120;48.308;8.914;2023-07-09T06:27:28;6.05;;;4.03;;
16031;SDS011;8120;48.308;8.914;2023-07-09T06:29:55;7.05;;;4.07;;
16031;SDS011;8120;48.308;8.914;2023-07-09T06:32:23;6.60;;;4.18;;
16031;SDS011;8120;48.308;8.914;2023-07-09T06:34:52;5.47;;;3.70;;
16031;SDS011;8120;48.308;8.914;2023-07-09T06:37:20;6.45;;;4.40;;
16031;SDS011;8120;48.308;8.914;2023-07-09T06:39:48;4.93;;;3.92;;
16031;SDS011;8120;48.308;8.914;2023-07-09T06:42:17;6.68;;;4.00;;
16031;SDS011;8120;48.308;8.914;2023-07-09T06:44:45;5.93;;;3.88;;
16031;SDS011;8120;48.308;8.914;2023-07-09T06:47:13;6.97;;;4.25;;
16031;SDS011;8120;48.308;8.914;2023-07-09T06:49:41;6.82;;;4.03;;
16031;SDS011;8120;48.308;8.914;2023-07-09T06:52:08;5.72;;;3.60;;
16031;SDS011;8120;48.308;8.914;2023-07-09T06:54:36;6.53;;;4.03;;
16031;SDS011;8120;48.308;8.914;2023-07-09T06:57:04;6.45;;;3.90;;
16031;SDS011;8120;48.308;8.914;2023-07-09T06:59:33;7.43;;;4.43;;
16031;SDS011;8120;48.308;8.914;2023-07-09T07:02:02;8.18;;;4.07;;
16031;SDS011;8120;48.308;8.914;2023-07-09T07:04:30;8.30;;;4.15;;
16031;SDS011;8120;48.308;8.914;2023-07-09T07:06:58;6.82;;;4.50;;
16031;SDS011;8120;48.308;8.914;2023-07-09T07:09:26;8.60;;;5.10;;
16031;SDS011;8120;48.308;8.914;2023-07-09T07:11:54;6.18;;;4.30;;
16031;SDS011;8120;48.308;8.914;2023-07-09T07:14:22;7.80;;;4.53;;
16031;SDS011;8120;48.308;8.914;2023-07-09T07:16:51;6.03;;;4.18;;
16031;SDS011;8120;48.308;8.914;2023-07-09T07:19:19;7.22;;;4.05;;
16031;SDS011;8120;48.308;8.914;2023-07-09T07:21:47;6.35;;;3.92;;
16031;SDS011;8120;48.308;8.914;2023-07-09T07:24:15;5.68;;;4.25;;
16031;SDS011;8120;48.308;8.914;2023-07-09T07:26:42;6.35;;;4.47;;
16031;SDS011;8120;48.308;8.914;2023-07-09T07:29:10;6.53;;;4.32;;
16031;SDS011;8120;48.308;8.914;2023-07-09T07:31:38;7.03;;;4.13;;
16031;SDS011;8120;48.308;8.914;2023-07-09T07:34:07;6.85;;;4.63;;
16031;SDS011;8120;48.308;8.914;2023-07-09T07:36:35;6.80;;;4.53;;
16031;SDS011;8120;48.308;8.914;2023-07-09T07:39:08;6.25;;;4.25;;
16031;SDS011;8120;48.308;8.914;2023-07-09T07:41:36;7.82;;;4.10;;
16031;SDS011;8120;48.308;8.914;2023-07-09T07:44:04;7.57;;;4.47;;
16031;SDS011;8120;48.308;8.914;2023-07-09T07:46:32;7.97;;;4.55;;
16031;SDS011;8120;48.308;8.914;2023-07-09T07:49:01;6.57;;;4.57;;
16031;SDS011;8120;48.308;8.914;2023-07-09T07:51:30;7.63;;;4.35;;
16031;SDS011;8120;48.308;8.914;2023-07-09T07:54:00;5.95;;;4.20;;
16031;SDS011;8120;48.308;8.914;2023-07-09T07:56:28;5.65;;;3.88;;
16031;SDS011;8120;48.308;8.914;2023-07-09T07:58:56;7.70;;;4.18;;
16031;SDS011;8120;48.308;8.914;2023-07-09T08:01:23;6.88;;;3.65;;
16031;SDS011;8120;48.308;8.914;2023-07-09T08:03:53;6.25;;;4.13;;
16031;SDS011;8120;48.308;8.914;2023-07-09T08:06:21;6.65;;;3.90;;
16031;SDS011;8120;48.308;8.914;2023-07-09T08:08:50;5.25;;;3.80;;
16031;SDS011;8120;48.308;8.914;2023-07-09T08:11:18;6.13;;;4.20;;
16031;SDS011;8120;48.308;8.914;2023-07-09T08:13:46;6.40;;;4.03;;
16031;SDS011;8120;48.308;8.914;2023-07-09T08:16:14;6.82;;;3.85;;
16031;SDS011;8120;48.308;8.914;2023-07-09T08:18:44;6.28;;;3.70;;
16031;SDS011;8120;48.308;8.914;2023-07-09T08:21:12;6.03;;;3.60;;
16031;SDS011;8120;48.308;8.914;2023-07-09T08:23:40;7.25;;;4.05;;
16031;SDS011;8120;48.308;8.914;2023-07-09T08:26:09;6.47;;;3.92;;
16031;SDS011;8120;48.308;8.914;2023-07-09T08:28:37;8.40;;;4.63;;
16031;SDS011;8120;48.308;8.914;2023-07-09T08:31:05;5.50;;;3.75;;
16031;SDS011;8120;48.308;8.914;2023-07-09T08:33:33;6.30;;;4.15;;
16031;SDS011;8120;48.308;8.914;2023-07-09T08:36:02;7.05;;;3.90;;
16031;SDS011;8120;48.308;8.914;2023-07-09T08:38:30;6.93;;;3.70;;
16031;SDS011;8120;48.308;8.914;2023-07-09T08:41:00;8.35;;;3.80;;
16031;SDS011;8120;48.308;8.914;2023-07-09T08:43:38;7.20;;;4.30;;
16031;SDS011;8120;48.308;8.914;2023-07-09T08:46:17;6.03;;;4.03;;
16031;SDS011;8120;48.308;8.914;2023-07-09T08:48:54;5.95;;;3.72;;
16031;SDS011;8120;48.308;8.914;2023-07-09T08:51:26;5.45;;;3.85;;
16031;SDS011;8120;48.308;8.914;2023-07-09T08:54:00;5.63;;;3.78;;
16031;SDS011;8120;48.308;8.914;2023-07-09T08:56:29;6.53;;;4.00;;
16031;SDS011;8120;48.308;8.914;2023-07-09T08:59:02;4.13;;;2.80;;
16031;SDS011;8120;48.308;8.914;2023-07-09T09:01:31;5.78;;;3.47;;
16031;SDS011;8120;48.308;8.914;2023-07-09T09:04:10;8.55;;;3.80;;
16031;SDS011;8120;48.308;8.914;2023-07-09T09:06:42;6.60;;;4.03;;
16031;SDS011;8120;48.308;8.914;2023-07-09T09:09:15;4.85;;;3.88;;
16031;SDS011;8120;48.308;8.914;2023-07-09T09:11:52;4.88;;;3.45;;
16031;SDS011;8120;48.308;8.914;2023-07-09T09:14:27;6.07;;;3.65;;
16031;SDS011;8120;48.308;8.914;2023-07-09T09:16:59;6.63;;;3.72;;
16031;SDS011;8120;48.308;8.914;2023-07-09T09:19:29;6.75;;;3.60;;
16031;SDS011;8120;48.308;8.914;2023-07-09T09:22:05;5.80;;;3.75;;
16031;SDS011;8120;48.308;8.914;2023-07-09T09:24:36;5.88;;;3.50;;
16031;SDS011;8120;48.308;8.914;2023-07-09T09:27:08;6.57;;;3.80;;
16031;SDS011;8120;48.308;8.914;2023-07-09T09:29:37;5.20;;;3.47;;
16031;SDS011;8120;48.308;8.914;2023-07-09T09:32:12;3.40;;;3.10;;
16031;SDS011;8120;48.308;8.914;2023-07-09T09:34:49;5.05;;;3.30;;
16031;SDS011;8120;48.308;8.914;2023-07-09T09:37:23;4.88;;;3.40;;
16031;SDS011;8120;48.308;8.914;2023-07-09T09:39:54;4.88;;;3.03;;
16031;SDS011;8120;48.308;8.914;2023-07-09T09:42:40;5.60;;;3.28;;
16031;SDS011;8120;48.308;8.914;2023-07-09T09:45:11;5.65;;;3.10;;
16031;SDS011;8120;48.308;8.914;2023-07-09T09:47:42;4.40;;;3.22;;
16031;SDS011;8120;48.308;8.914;2023-07-09T09:50:12;5.53;;;3.42;;
16031;SDS011;8120;48.308;8.914;2023-07-09T09:52:41;5.70;;;3.10;;
16031;SDS011;8120;48.308;8.914;2023-07-09T09:55:12;6.00;;;3.33;;
16031;SDS011;8120;48.308;8.914;2023-07-09T09:57:47;6.43;;;3.50;;
16031;SDS011;8120;48.308;8.914;2023-07-09T10:00:18;5.47;;;3.78;;
16031;SDS011;8120;48.308;8.914;2023-07-09T10:02:49;7.38;;;3.30;;
16031;SDS011;8120;48.308;8.914;2023-07-09T10:05:19;6.00;;;3.28;;
16031;SDS011;8120;48.308;8.914;2023-07-09T10:07:55;6.80;;;3.20;;
16031;SDS011;8120;48.308;8.914;2023-07-09T10:10:27;5.00;;;2.88;;
16031;SDS011;8120;48.308;8.914;2023-07-09T10:12:59;4.10;;;2.97;;
16031;SDS011;8120;48.308;8.914;2023-07-09T10:15:37;6.45;;;3.70;;
16031;SDS011;8120;48.308;8.914;2023-07-09T10:18:13;5.88;;;3.97;;
16031;SDS011;8120;48.308;8.914;2023-07-09T10:20:55;6.53;;;3.15;;
16031;SDS011;8120;48.308;8.914;2023-07-09T10:23:34;6.20;;;3.80;;
16031;SDS011;8120;48.308;8.914;2023-07-09T10:26:08;5.75;;;3.38;;
16031;SDS011;8120;48.308;8.914;2023-07-09T10:31:49;6.78;;;2.90;;
16031;SDS011;8120;48.308;8.914;2023-07-09T10:34:25;4.90;;;3.15;;
16031;SDS011;8120;48.308;8.914;2023-07-09T10:37:03;5.50;;;3.35;;
16031;SDS011;8120;48.308;8.914;2023-07-09T10:39:49;6.13;;;3.50;;
16031;SDS011;8120;48.308;8.914;2023-07-09T10:42:22;6.57;;;3.72;;
16031;SDS011;8120;48.308;8.914;2023-07-09T10:44:55;4.57;;;3.10;;
16031;SDS011;8120;48.308;8.914;2023-07-09T10:47:27;5.75;;;3.00;;
16031;SDS011;8120;48.308;8.914;2023-07-09T10:49:58;5.18;;;3.50;;
16031;SDS011;8120;48.308;8.914;2023-07-09T10:52:28;5.10;;;2.85;;
16031;SDS011;8120;48.308;8.914;2023-07-09T10:54:59;6.30;;;3.50;;
16031;SDS011;8120;48.308;8.914;2023-07-09T10:57:35;6.72;;;3.42;;
16031;SDS011;8120;48.308;8.914;2023-07-09T11:00:11;4.97;;;3.53;;
16031;SDS011;8120;48.308;8.914;2023-07-09T11:02:45;6.50;;;3.33;;
16031;SDS011;8120;48.308;8.914;2023-07-09T11:05:18;7.50;;;3.60;;
16031;SDS011;8120;48.308;8.914;2023-07-09T11:07:47;8.10;;;4.05;;
16031;SDS011;8120;48.308;8.914;2023-07-09T11:10:32;6.13;;;3.78;;
16031;SDS011;8120;48.308;8.914;2023-07-09T11:13:04;5.57;;;3.22;;
16031;SDS011;8120;48.308;8.914;2023-07-09T11:15:39;5.95;;;3.25;;
16031;SDS011;8120;48.308;8.914;2023-07-09T11:18:12;5.95;;;3.55;;
16031;SDS011;8120;48.308;8.914;2023-07-09T11:20:44;6.53;;;3.30;;
16031;SDS011;8120;48.308;8.914;2023-07-09T11:23:17;8.88;;;3.30;;
16031;SDS011;8120;48.308;8.914;2023-07-09T11:25:48;6.32;;;2.80;;
16031;SDS011;8120;48.308;8.914;2023-07-09T11:28:32;6.60;;;3.03;;
16031;SDS011;8120;48.308;8.914;2023-07-09T11:31:05;4.30;;;2.80;;
16031;SDS011;8120;48.308;8.914;2023-07-09T11:33:44;5.25;;;3.45;;
16031;SDS011;8120;48.308;8.914;2023-07-09T11:36:14;9.85;;;3.28;;
16031;SDS011;8120;48.308;8.914;2023-07-09T11:38:52;6.00;;;3.47;;
16031;SDS011;8120;48.308;8.914;2023-07-09T11:41:37;6.20;;;3.50;;
16031;SDS011;8120;48.308;8.914;2023-07-09T11:44:12;6.22;;;3.50;;
16031;SDS011;8120;48.308;8.914;2023-07-09T11:46:47;5.00;;;3.45;;
16031;SDS011;8120;48.308;8.914;2023-07-09T11:49:24;5.35;;;3.72;;
16031;SDS011;8120;48.308;8.914;2023-07-09T11:51:55;5.72;;;3.45;;
16031;SDS011;8120;48.308;8.914;2023-07-09T11:54:33;5.97;;;3.33;;
16031;SDS011;8120;48.308;8.914;2023-07-09T11:57:02;4.78;;;3.40;;
16031;SDS011;8120;48.308;8.914;2023-07-09T11:59:37;5.45;;;3.22;;
16031;SDS011;8120;48.308;8.914;2023-07-09T12:02:06;5.20;;;3.30;;
16031;SDS011;8120;48.308;8.914;2023-07-09T12:04:44;5.68;;;3.30;;
16031;SDS011;8120;48.308;8.914;2023-07-09T12:07:16;4.25;;;3.33;;
16031;SDS011;8120;48.308;8.914;2023-07-09T12:09:46;5.13;;;3.25;;
16031;SDS011;8120;48.308;8.914;2023-07-09T12:12:20;5.22;;;3.08;;
16031;SDS011;8120;48.308;8.914;2023-07-09T12:14:50;6.32;;;3.38;;
16031;SDS011;8120;48.308;8.914;2023-07-09T12:17:19;5.55;;;3.67;;
16031;SDS011;8120;48.308;8.914;2023-07-09T12:19:56;5.22;;;3.40;;
16031;SDS011;8120;48.308;8.914;2023-07-09T12:22:24;6.25;;;3.45;;
16031;SDS011;8120;48.308;8.914;2023-07-09T12:24:52;5.57;;;3.60;;
16031;SDS011;8120;48.308;8.914;2023-07-09T12:27:23;4.70;;;3.38;;
16031;SDS011;8120;48.308;8.914;2023-07-09T12:29:53;5.75;;;3.13;;
16031;SDS011;8120;48.308;8.914;2023-07-09T12:32:23;5.78;;;3.65;;
16031;SDS011;8120;48.308;8.914;2023-07-09T12:34:54;5.65;;;3.30;;
16031;SDS011;8120;48.308;8.914;2023-07-09T12:37:24;4.88;;;3.50;;
16031;SDS011;8120;48.308;8.914;2023-07-09T12:39:55;5.30;;;3.33;;
16031;SDS011;8120;48.308;8.914;2023-07-09T12:42:28;6.15;;;3.22;;
16031;SDS011;8120;48.308;8.914;2023-07-09T12:44:59;4.90;;;2.65;;
16031;SDS011;8120;48.308;8.914;2023-07-09T12:47:27;6.15;;;3.70;;
16031;SDS011;8120;48.308;8.914;2023-07-09T12:50:00;4.38;;;3.22;;
16031;SDS011;8120;48.308;8.914;2023-07-09T12:52:31;4.95;;;3.35;;
16031;SDS011;8120;48.308;8.914;2023-07-09T12:55:00;6.38;;;3.60;;
16031;SDS011;8120;48.308;8.914;2023-07-09T12:57:29;5.93;;;3.88;;
16031;SDS011;8120;48.308;8.914;2023-07-09T12:59:58;4.93;;;3.20;;
16031;SDS011;8120;48.308;8.914;2023-07-09T13:02:26;8.55;;;3.38;;
16031;SDS011;8120;48.308;8.914;2023-07-09T13:04:59;5.97;;;3.38;;
16031;SDS011;8120;48.308;8.914;2023-07-09T13:07:30;6.65;;;3.22;;
16031;SDS011;8120;48.308;8.914;2023-07-09T13:10:05;5.40;;;3.25;;
16031;SDS011;8120;48.308;8.914;2023-07-09T13:12:44;5.82;;;3.65;;
16031;SDS011;8120;48.308;8.914;2023-07-09T13:15:20;5.00;;;3.25;;
16031;SDS011;8120;48.308;8.914;2023-07-09T13:17:56;5.60;;;3.17;;
16031;SDS011;8120;48.308;8.914;2023-07-09T13:20:26;6.28;;;3.58;;
16031;SDS011;8120;48.308;8.914;2023-07-09T13:22:56;7.13;;;3.67;;
16031;SDS011;8120;48.308;8.914;2023-07-09T13:25:24;5.30;;;3.53;;
16031;SDS011;8120;48.308;8.914;2023-07-09T13:28:13;5.85;;;3.35;;
16031;SDS011;8120;48.308;8.914;2023-07-09T13:30:47;4.82;;;2.90;;
16031;SDS011;8120;48.308;8.914;2023-07-09T13:33:17;4.55;;;2.97;;
16031;SDS011;8120;48.308;8.914;2023-07-09T13:35:45;6.18;;;3.72;;
16031;SDS011;8120;48.308;8.914;2023-07-09T13:38:16;4.07;;;3.08;;
16031;SDS011;8120;48.308;8.914;2023-07-09T13:40:46;6.72;;;3.03;;
16031;SDS011;8120;48.308;8.914;2023-07-09T13:43:19;6.22;;;3.30;;
16031;SDS011;8120;48.308;8.914;2023-07-09T13:45:48;5.95;;;3.40;;
16031;SDS011;8120;48.308;8.914;2023-07-09T13:48:17;6.65;;;3.67;;
16031;SDS011;8120;48.308;8.914;2023-07-09T13:50:48;5.95;;;3.72;;
16031;SDS011;8120;48.308;8.914;2023-07-09T13:53:20;7.45;;;3.42;;
16031;SDS011;8120;48.308;8.914;2023-07-09T13:55:50;8.27;;;3.58;;
16031;SDS011;8120;48.308;8.914;2023-07-09T13:58:20;7.15;;;3.50;;
16031;SDS011;8120;48.308;8.914;2023-07-09T14:00:49;5.97;;;4.10;;
16031;SDS011;8120;48.308;8.914;2023-07-09T14:03:22;8.57;;;3.90;;
16031;SDS011;8120;48.308;8.914;2023-07-09T14:05:51;5.60;;;3.78;;
16031;SDS011;8120;48.308;8.914;2023-07-09T14:08:21;6.05;;;3.10;;
16031;SDS011;8120;48.308;8.914;2023-07-09T14:10:49;5.93;;;3.47;;
16031;SDS011;8120;48.308;8.914;2023-07-09T14:13:18;6.65;;;3.72;;
16031;SDS011;8120;48.308;8.914;2023-07-09T14:15:48;6.70;;;3.88;;
16031;SDS011;8120;48.308;8.914;2023-07-09T14:18:17;5.35;;;3.20;;
16031;SDS011;8120;48.308;8.914;2023-07-09T14:20:47;5.30;;;3.22;;
16031;SDS011;8120;48.308;8.914;2023-07-09T14:23:17;6.13;;;3.22;;
16031;SDS011;8120;48.308;8.914;2023-07-09T14:25:47;5.72;;;3.28;;
16031;SDS011;8120;48.308;8.914;2023-07-09T14:28:16;5.40;;;3.50;;
16031;SDS011;8120;48.308;8.914;2023-07-09T14:30:45;5.15;;;3.55;;
16031;SDS011;8120;48.308;8.914;2023-07-09T14:33:16;7.10;;;3.20;;
16031;SDS011;8120;48.308;8.914;2023-07-09T14:35:45;6.90;;;3.42;;
16031;SDS011;8120;48.308;8.914;2023-07-09T14:38:15;5.70;;;3.58;;
16031;SDS011;8120;48.308;8.914;2023-07-09T14:40:45;4.38;;;2.95;;
16031;SDS011;8120;48.308;8.914;2023-07-09T14:43:14;5.25;;;3.33;;
16031;SDS011;8120;48.308;8.914;2023-07-09T14:45:43;5.70;;;3.67;;
16031;SDS011;8120;48.308;8.914;2023-07-09T14:48:11;8.27;;;3.75;;
16031;SDS011;8120;48.308;8.914;2023-07-09T14:50:41;5.93;;;3.53;;
16031;SDS011;8120;48.308;8.914;2023-07-09T14:53:13;5.20;;;3.40;;
16031;SDS011;8120;48.308;8.914;2023-07-09T14:55:42;4.93;;;3.42;;
16031;SDS011;8120;48.308;8.914;2023-07-09T14:58:15;6.50;;;3.40;;
16031;SDS011;8120;48.308;8.914;2023-07-09T15:00:45;8.57;;;3.30;;
16031;SDS011;8120;48.308;8.914;2023-07-09T15:03:15;6.93;;;3.60;;
16031;SDS011;8120;48.308;8.914;2023-07-09T15:05:46;6.13;;;3.35;;
16031;SDS011;8120;48.308;8.914;2023-07-09T15:08:14;6.07;;;3.63;;
16031;SDS011;8120;48.308;8.914;2023-07-09T15:10:44;6.35;;;3.72;;
16031;SDS011;8120;48.308;8.914;2023-07-09T15:13:16;8.55;;;3.78;;
16031;SDS011;8120;48.308;8.914;2023-07-09T15:15:46;6.07;;;3.65;;
16031;SDS011;8120;48.308;8.914;2023-07-09T15:18:15;6.57;;;3.55;;
16031;SDS011;8120;48.308;8.914;2023-07-09T15:20:46;7.00;;;3.35;;
16031;SDS011;8120;48.308;8.914;2023-07-09T15:23:16;7.22;;;3.60;;
16031;SDS011;8120;48.308;8.914;2023-07-09T15:25:44;6.00;;;3.53;;